createdAt,value
2022-09-28T00:00:13.525Z,7.12
2022-09-28T00:01:13.517Z,7.13
2022-09-28T00:02:13.696Z,7.12
2022-09-28T00:03:13.539Z,7.07
2022-09-28T00:04:13.465Z,7.15
2022-09-28T00:05:13.458Z,7.06
2022-09-28T00:06:13.458Z,7.12
2022-09-28T00:07:13.436Z,7.09
2022-09-28T00:08:13.466Z,7.06
2022-09-28T00:09:13.464Z,7.10
2022-09-28T00:10:13.397Z,7.03
2022-09-28T00:11:13.388Z,6.97
2022-09-28T00:12:13.409Z,7.03
2022-09-28T00:13:13.384Z,7.03
2022-09-28T00:14:13.348Z,7.03
2022-09-28T00:15:13.368Z,6.99
2022-09-28T00:16:13.409Z,6.95
2022-09-28T00:17:13.315Z,7.05
2022-09-28T00:18:13.369Z,7.02
2022-09-28T00:19:13.446Z,7.02
2022-09-28T00:20:13.277Z,6.88
2022-09-28T00:21:13.269Z,6.87
2022-09-28T00:22:13.260Z,6.94
2022-09-28T00:23:13.251Z,6.88
2022-09-28T00:24:13.286Z,6.91
2022-09-28T00:25:13.231Z,6.91
2022-09-28T00:26:13.217Z,6.91
2022-09-28T00:27:13.204Z,6.88
2022-09-28T00:28:13.195Z,6.98
2022-09-28T00:29:13.277Z,6.89
2022-09-28T00:30:13.182Z,6.91
2022-09-28T00:31:13.230Z,6.92
2022-09-28T00:32:13.146Z,6.91
2022-09-28T00:33:13.132Z,6.88
2022-09-28T00:34:13.150Z,6.94
2022-09-28T00:35:13.115Z,6.97
2022-09-28T00:36:13.112Z,6.92
2022-09-28T00:37:13.090Z,6.91
2022-09-28T00:38:13.078Z,6.94
2022-09-28T00:39:13.114Z,6.95
2022-09-28T00:40:13.074Z,6.91
2022-09-28T00:41:13.041Z,6.88
2022-09-28T00:42:13.185Z,6.95
2022-09-28T00:43:13.023Z,6.98
2022-09-28T00:44:13.025Z,6.97
2022-09-28T00:45:12.994Z,6.94
2022-09-28T00:46:13.029Z,6.98
2022-09-28T00:47:12.992Z,6.97
2022-09-28T00:48:12.975Z,6.98
2022-09-28T00:49:13.062Z,6.94
2022-09-28T00:50:12.941Z,7.03
2022-09-28T00:51:12.930Z,6.95
2022-09-28T00:52:12.919Z,6.92
2022-09-28T00:53:12.908Z,6.99
2022-09-28T00:54:12.929Z,7.05
2022-09-28T00:55:12.901Z,6.99
2022-09-28T00:56:12.870Z,7.05
2022-09-28T00:57:12.861Z,7.05
2022-09-28T00:58:12.845Z,7.06
2022-09-28T00:59:12.895Z,7.12
2022-09-28T01:00:12.828Z,6.95
2022-09-28T01:01:12.931Z,7.10
2022-09-28T01:02:12.815Z,7.07
2022-09-28T01:03:12.809Z,7.06
2022-09-28T01:04:12.780Z,6.97
2022-09-28T01:05:12.788Z,7.07
2022-09-28T01:06:12.770Z,7.02
2022-09-28T01:07:12.755Z,6.99
2022-09-28T01:08:12.734Z,7.05
2022-09-28T01:09:12.725Z,7.10
2022-09-28T01:10:12.733Z,7.15
2022-09-28T01:11:12.702Z,7.09
2022-09-28T01:12:12.702Z,7.03
2022-09-28T01:13:12.679Z,7.15
2022-09-28T01:14:12.669Z,7.05
2022-09-28T01:15:12.676Z,7.10
2022-09-28T01:16:12.681Z,7.09
2022-09-28T01:17:12.629Z,7.06
2022-09-28T01:18:12.634Z,6.98
2022-09-28T01:19:12.725Z,7.07
2022-09-28T01:20:12.615Z,7.15
2022-09-28T01:21:12.588Z,7.16
2022-09-28T01:22:12.597Z,7.09
2022-09-28T01:23:12.562Z,7.10
2022-09-28T01:24:12.572Z,7.16
2022-09-28T01:25:12.566Z,7.12
2022-09-28T01:26:12.537Z,7.13
2022-09-28T01:27:12.526Z,7.12
2022-09-28T01:28:12.511Z,7.10
2022-09-28T01:29:12.510Z,7.16
2022-09-28T01:30:12.518Z,7.20
2022-09-28T01:31:12.522Z,7.15
2022-09-28T01:32:12.511Z,7.16
2022-09-28T01:33:12.479Z,7.15
2022-09-28T01:34:12.442Z,7.15
2022-09-28T01:35:12.449Z,7.13
2022-09-28T01:36:12.448Z,7.15
2022-09-28T01:37:12.408Z,7.15
2022-09-28T01:38:12.401Z,7.13
2022-09-28T01:39:12.409Z,7.15
2022-09-28T01:40:12.378Z,7.15
2022-09-28T01:41:12.367Z,7.15
2022-09-28T01:42:12.364Z,7.21
2022-09-28T01:43:13.012Z,7.09
2022-09-28T01:44:12.330Z,7.10
2022-09-28T01:45:12.317Z,7.06
2022-09-28T01:46:12.399Z,6.95
2022-09-28T01:47:12.302Z,6.98
2022-09-28T01:48:12.299Z,6.99
2022-09-28T01:49:12.277Z,6.99
2022-09-28T01:50:12.281Z,6.88
2022-09-28T01:51:12.271Z,6.89
2022-09-28T01:52:12.261Z,6.79
2022-09-28T01:53:12.229Z,6.81
2022-09-28T01:54:12.221Z,6.79
2022-09-28T01:55:12.212Z,6.76
2022-09-28T01:56:12.194Z,6.76
2022-09-28T01:57:12.201Z,6.79
2022-09-28T01:58:12.204Z,6.79
2022-09-28T01:59:12.160Z,6.84
2022-09-28T02:00:12.156Z,6.81
2022-09-28T02:01:12.211Z,6.77
2022-09-28T02:02:12.200Z,6.71
2022-09-28T02:03:12.113Z,6.70
2022-09-28T02:04:12.107Z,6.70
2022-09-28T02:05:12.098Z,6.77
2022-09-28T02:06:12.082Z,6.70
2022-09-28T02:07:12.111Z,6.69
2022-09-28T02:08:12.061Z,6.62
2022-09-28T02:09:12.081Z,6.61
2022-09-28T02:10:12.033Z,6.62
2022-09-28T02:11:12.022Z,6.67
2022-09-28T02:12:12.013Z,6.62
2022-09-28T02:13:12.051Z,6.59
2022-09-28T02:14:11.986Z,6.58
2022-09-28T02:15:11.974Z,6.48
2022-09-28T02:16:12.077Z,6.49
2022-09-28T02:17:11.951Z,6.41
2022-09-28T02:18:11.959Z,6.40
2022-09-28T02:19:19.617Z,6.34
2022-09-28T02:20:11.931Z,6.33
2022-09-28T02:21:11.953Z,6.33
2022-09-28T02:22:11.914Z,6.33
2022-09-28T02:23:11.970Z,6.33
2022-09-28T02:24:11.893Z,6.33
2022-09-28T02:25:11.863Z,6.25
2022-09-28T02:26:11.853Z,6.28
2022-09-28T02:27:11.857Z,6.31
2022-09-28T02:28:11.870Z,6.21
2022-09-28T02:29:11.816Z,6.14
2022-09-28T02:30:11.826Z,6.12
2022-09-28T02:31:11.863Z,6.11
2022-09-28T02:32:11.794Z,6.18
2022-09-28T02:33:11.797Z,6.04
2022-09-28T02:34:11.775Z,6.11
2022-09-28T02:35:11.770Z,6.08
2022-09-28T02:36:11.740Z,6.12
2022-09-28T02:37:11.766Z,5.99
2022-09-28T02:38:11.726Z,5.93
2022-09-28T02:39:11.768Z,5.96
2022-09-28T02:40:11.707Z,5.90
2022-09-28T02:41:11.713Z,5.90
2022-09-28T02:42:11.671Z,5.93
2022-09-28T02:43:11.659Z,5.85
2022-09-28T02:44:11.668Z,5.85
2022-09-28T02:45:11.669Z,5.76
2022-09-28T02:46:11.708Z,5.83
2022-09-28T02:47:11.632Z,5.74
2022-09-28T02:48:11.605Z,5.74
2022-09-28T02:49:21.409Z,5.72
2022-09-28T02:50:12.599Z,5.61
2022-09-28T02:51:11.568Z,5.60
2022-09-28T02:52:11.574Z,5.65
2022-09-28T02:53:11.545Z,5.58
2022-09-28T02:54:15.437Z,5.57
2022-09-28T02:55:12.538Z,5.45
2022-09-28T02:56:11.526Z,5.46
2022-09-28T02:57:11.534Z,5.42
2022-09-28T02:58:11.508Z,5.45
2022-09-28T02:59:11.513Z,5.31
2022-09-28T03:00:11.485Z,5.38
2022-09-28T03:01:11.485Z,5.31
2022-09-28T03:02:11.484Z,5.30
2022-09-28T03:03:11.482Z,5.27
2022-09-28T03:04:11.444Z,5.27
2022-09-28T03:05:11.411Z,5.28
2022-09-28T03:06:11.418Z,5.36
2022-09-28T03:07:11.407Z,5.25
2022-09-28T03:08:11.376Z,5.33
2022-09-28T03:09:11.389Z,5.27
2022-09-28T03:10:11.403Z,5.35
2022-09-28T03:11:11.362Z,5.36
2022-09-28T03:12:11.336Z,5.49
2022-09-28T03:13:11.341Z,5.57
2022-09-28T03:14:11.309Z,5.43
2022-09-28T03:15:11.299Z,5.49
2022-09-28T03:16:11.349Z,5.49
2022-09-28T03:17:11.296Z,5.57
2022-09-28T03:18:11.287Z,5.64
2022-09-28T03:19:11.255Z,5.63
2022-09-28T03:20:11.245Z,5.64
2022-09-28T03:21:11.234Z,5.78
2022-09-28T03:22:11.238Z,5.75
2022-09-28T03:23:26.626Z,5.75
2022-09-28T03:24:12.199Z,5.82
2022-09-28T03:25:11.185Z,5.82
2022-09-28T03:26:11.176Z,5.82
2022-09-28T03:27:11.223Z,5.86
2022-09-28T03:28:11.166Z,5.86
2022-09-28T03:29:11.237Z,5.85
2022-09-28T03:30:11.133Z,5.91
2022-09-28T03:31:11.217Z,5.81
2022-09-28T03:32:11.132Z,5.96
2022-09-28T03:33:11.101Z,5.91
2022-09-28T03:34:11.164Z,5.91
2022-09-28T03:35:11.127Z,5.89
2022-09-28T03:36:11.123Z,6.03
2022-09-28T03:37:11.067Z,5.89
2022-09-28T03:38:11.058Z,5.96
2022-09-28T03:39:11.123Z,5.85
2022-09-28T03:40:11.036Z,5.93
2022-09-28T03:41:11.040Z,5.91
2022-09-28T03:42:11.014Z,6.00
2022-09-28T03:43:11.002Z,5.89
2022-09-28T03:44:10.972Z,5.91
2022-09-28T03:45:10.983Z,5.96
2022-09-28T03:46:11.062Z,5.99
2022-09-28T03:47:10.936Z,5.90
2022-09-28T03:48:10.982Z,5.82
2022-09-28T03:49:11.071Z,5.85
2022-09-28T03:50:11.140Z,5.83
2022-09-28T03:51:10.911Z,5.79
2022-09-28T03:52:10.937Z,5.83
2022-09-28T03:53:10.919Z,5.89
2022-09-28T03:54:10.992Z,5.83
2022-09-28T03:55:10.855Z,5.82
2022-09-28T03:56:10.888Z,5.79
2022-09-28T03:57:10.826Z,5.78
2022-09-28T03:58:10.819Z,5.82
2022-09-28T03:59:10.912Z,5.81
2022-09-28T04:00:10.793Z,5.85
2022-09-28T04:01:14.147Z,5.83
2022-09-28T04:02:11.816Z,5.85
2022-09-28T04:03:10.757Z,5.82
2022-09-28T04:04:10.798Z,5.74
2022-09-28T04:05:10.735Z,5.82
2022-09-28T04:06:10.732Z,5.79
2022-09-28T04:07:10.729Z,5.76
2022-09-28T04:08:10.717Z,5.79
2022-09-28T04:09:10.834Z,5.86
2022-09-28T04:10:10.741Z,5.82
2022-09-28T04:11:10.695Z,5.74
2022-09-28T04:12:10.689Z,5.76
2022-09-28T04:13:10.645Z,5.72
2022-09-28T04:14:10.650Z,5.76
2022-09-28T04:15:10.679Z,5.76
2022-09-28T04:16:10.723Z,5.78
2022-09-28T04:17:10.599Z,5.85
2022-09-28T04:18:10.587Z,5.78
2022-09-28T04:19:10.626Z,5.79
2022-09-28T04:20:10.589Z,5.79
2022-09-28T04:21:10.551Z,5.79
2022-09-28T04:22:10.557Z,5.83
2022-09-28T04:23:10.552Z,5.72
2022-09-28T04:24:10.518Z,5.72
2022-09-28T04:25:10.526Z,5.65
2022-09-28T04:26:10.519Z,5.67
2022-09-28T04:27:10.486Z,5.63
2022-09-28T04:28:10.512Z,5.65
2022-09-28T04:29:10.471Z,5.61
2022-09-28T04:30:10.457Z,5.58
2022-09-28T04:31:10.481Z,5.72
2022-09-28T04:32:10.431Z,5.65
2022-09-28T04:33:10.418Z,5.65
2022-09-28T04:34:10.430Z,5.68
2022-09-28T04:35:10.419Z,5.68
2022-09-28T04:36:10.394Z,5.60
2022-09-28T04:37:10.373Z,5.60
2022-09-28T04:38:11.006Z,5.68
2022-09-28T04:39:10.396Z,5.65
2022-09-28T04:40:10.347Z,5.64
2022-09-28T04:41:10.384Z,5.60
2022-09-28T04:42:10.356Z,5.64
2022-09-28T04:43:10.307Z,5.79
2022-09-28T04:44:10.354Z,5.79
2022-09-28T04:45:10.305Z,5.72
2022-09-28T04:46:10.335Z,5.67
2022-09-28T04:47:10.283Z,5.79
2022-09-28T04:48:10.257Z,5.74
2022-09-28T04:49:10.300Z,5.76
2022-09-28T04:50:10.249Z,5.78
2022-09-28T04:51:10.220Z,5.82
2022-09-28T04:52:13.541Z,5.82
2022-09-28T04:53:11.197Z,5.82
2022-09-28T04:54:10.179Z,5.90
2022-09-28T04:55:10.230Z,5.85
2022-09-28T04:56:10.168Z,5.90
2022-09-28T04:57:10.152Z,5.82
2022-09-28T04:58:10.142Z,5.89
2022-09-28T04:59:10.192Z,5.89
2022-09-28T05:00:10.141Z,5.86
2022-09-28T05:01:10.189Z,5.86
2022-09-28T05:02:10.162Z,5.91
2022-09-28T05:03:10.099Z,5.94
2022-09-28T05:04:10.077Z,5.90
2022-09-28T05:05:10.088Z,5.94
2022-09-28T05:06:10.048Z,5.90
2022-09-28T05:07:10.056Z,5.93
2022-09-28T05:08:10.030Z,5.96
2022-09-28T05:09:10.142Z,5.99
2022-09-28T05:10:10.009Z,5.97
2022-09-28T05:11:10.062Z,6.04
2022-09-28T05:12:09.976Z,6.04
2022-09-28T05:13:09.970Z,6.03
2022-09-28T05:14:10.031Z,6.12
2022-09-28T05:15:09.945Z,6.04
2022-09-28T05:16:09.992Z,6.06
2022-09-28T05:17:09.973Z,6.03
2022-09-28T05:18:09.909Z,6.06
2022-09-28T05:19:10.022Z,6.06
2022-09-28T05:20:09.924Z,6.04
2022-09-28T05:21:09.900Z,6.15
2022-09-28T05:22:09.895Z,6.09
2022-09-28T05:23:09.861Z,6.12
2022-09-28T05:24:09.845Z,6.14
2022-09-28T05:25:09.831Z,6.14
2022-09-28T05:26:09.822Z,6.15
2022-09-28T05:27:09.862Z,6.17
2022-09-28T05:28:09.798Z,6.12
2022-09-28T05:29:09.787Z,6.17
2022-09-28T05:30:09.771Z,6.17
2022-09-28T05:31:09.779Z,6.15
2022-09-28T05:32:09.830Z,6.15
2022-09-28T05:33:09.799Z,6.17
2022-09-28T05:34:09.728Z,6.17
2022-09-28T05:35:09.743Z,6.15
2022-09-28T05:36:09.728Z,6.18
2022-09-28T05:37:09.688Z,6.18
2022-09-28T05:38:09.690Z,6.18
2022-09-28T05:39:09.737Z,6.25
2022-09-28T05:40:09.660Z,6.22
2022-09-28T05:41:09.744Z,6.12
2022-09-28T05:42:09.636Z,6.08
2022-09-28T05:43:09.635Z,6.22
2022-09-28T05:44:09.615Z,6.17
2022-09-28T05:45:09.635Z,6.14
2022-09-28T05:46:09.639Z,6.22
2022-09-28T05:47:09.598Z,6.27
2022-09-28T05:48:09.695Z,6.25
2022-09-28T05:49:09.565Z,6.33
2022-09-28T05:50:09.547Z,6.34
2022-09-28T05:51:09.613Z,6.28
2022-09-28T05:52:09.541Z,6.33
2022-09-28T05:53:09.515Z,6.33
2022-09-28T05:54:09.500Z,6.31
2022-09-28T05:55:09.495Z,6.34
2022-09-28T05:56:09.483Z,6.40
2022-09-28T05:57:09.523Z,6.44
2022-09-28T05:58:09.454Z,6.33
2022-09-28T05:59:09.443Z,6.33
2022-09-28T06:00:09.449Z,6.36
2022-09-28T06:01:09.483Z,6.37
2022-09-28T06:02:09.464Z,6.44
2022-09-28T06:03:09.702Z,6.49
2022-09-28T06:04:09.385Z,6.46
2022-09-28T06:05:09.375Z,6.44
2022-09-28T06:06:09.388Z,6.52
2022-09-28T06:07:09.368Z,6.49
2022-09-28T06:08:09.340Z,6.49
2022-09-28T06:09:09.386Z,6.52
2022-09-28T06:10:09.325Z,6.44
2022-09-28T06:11:09.305Z,6.48
2022-09-28T06:12:09.293Z,6.46
2022-09-28T06:13:09.299Z,6.49
2022-09-28T06:14:09.269Z,6.49
2022-09-28T06:15:09.298Z,6.44
2022-09-28T06:16:09.301Z,6.51
2022-09-28T06:17:09.319Z,6.49
2022-09-28T06:18:09.226Z,6.54
2022-09-28T06:19:09.212Z,6.54
2022-09-28T06:20:09.204Z,6.59
2022-09-28T06:21:09.243Z,6.59
2022-09-28T06:22:09.203Z,6.54
2022-09-28T06:23:09.194Z,6.55
2022-09-28T06:24:09.160Z,6.55
2022-09-28T06:25:09.150Z,6.56
2022-09-28T06:26:09.161Z,6.54
2022-09-28T06:27:09.135Z,6.49
2022-09-28T06:28:09.113Z,6.58
2022-09-28T06:29:09.103Z,6.64
2022-09-28T06:30:09.093Z,6.64
2022-09-28T06:31:09.170Z,6.66
2022-09-28T06:32:09.086Z,6.62
2022-09-28T06:33:09.083Z,6.69
2022-09-28T06:34:09.042Z,6.71
2022-09-28T06:35:09.034Z,6.71
2022-09-28T06:36:09.040Z,6.66
2022-09-28T06:37:09.008Z,6.66
2022-09-28T06:38:09.000Z,6.77
2022-09-28T06:39:09.010Z,6.80
2022-09-28T06:40:08.978Z,6.71
2022-09-28T06:41:08.985Z,6.81
2022-09-28T06:42:08.956Z,6.76
2022-09-28T06:43:08.954Z,6.79
2022-09-28T06:44:08.956Z,6.77
2022-09-28T06:45:08.934Z,6.70
2022-09-28T06:46:08.979Z,6.73
2022-09-28T06:47:08.892Z,6.79
2022-09-28T06:48:08.898Z,6.77
2022-09-28T06:49:08.875Z,6.80
2022-09-28T06:50:08.861Z,6.84
2022-09-28T06:51:08.894Z,6.84
2022-09-28T06:52:08.845Z,6.84
2022-09-28T06:53:08.832Z,6.79
2022-09-28T06:54:08.816Z,6.77
2022-09-28T06:55:08.823Z,6.88
2022-09-28T06:56:08.813Z,6.84
2022-09-28T06:57:08.816Z,6.79
2022-09-28T06:58:08.777Z,6.77
2022-09-28T06:59:08.768Z,6.89
2022-09-28T07:00:08.775Z,6.79
2022-09-28T07:01:08.829Z,6.84
2022-09-28T07:02:08.780Z,6.79
2022-09-28T07:03:08.745Z,6.87
2022-09-28T07:04:08.780Z,6.87
2022-09-28T07:05:08.705Z,6.85
2022-09-28T07:06:08.728Z,6.85
2022-09-28T07:07:08.687Z,6.81
2022-09-28T07:08:08.699Z,6.80
2022-09-28T07:09:27.335Z,6.76
2022-09-28T07:10:09.705Z,6.81
2022-09-28T07:11:08.708Z,6.79
2022-09-28T07:12:08.644Z,6.74
2022-09-28T07:13:16.575Z,6.79
2022-09-28T07:14:15.717Z,6.80
2022-09-28T07:15:09.682Z,6.74
2022-09-28T07:16:08.800Z,6.87
2022-09-28T07:17:13.616Z,6.76
2022-09-28T07:18:09.705Z,6.74
2022-09-28T07:19:08.677Z,6.74
2022-09-28T07:20:18.496Z,6.66
2022-09-28T07:21:16.440Z,6.70
2022-09-28T07:22:09.556Z,6.66
2022-09-28T07:23:18.059Z,6.66
2022-09-28T07:24:09.564Z,6.67
2022-09-28T07:25:08.474Z,6.56
2022-09-28T07:26:09.321Z,6.56
2022-09-28T07:27:08.460Z,6.64
2022-09-28T07:28:08.432Z,6.61
2022-09-28T07:29:08.427Z,6.55
2022-09-28T07:30:08.460Z,6.58
2022-09-28T07:31:08.529Z,6.48
2022-09-28T07:32:08.415Z,6.48
2022-09-28T07:33:08.376Z,6.52
2022-09-28T07:34:08.391Z,6.81
2022-09-28T07:35:09.779Z,6.81
2022-09-28T07:36:08.894Z,6.80
2022-09-28T07:37:08.358Z,6.64
2022-09-28T07:38:08.578Z,6.59
2022-09-28T07:39:08.363Z,6.67
2022-09-28T07:40:08.410Z,6.64
2022-09-28T07:41:08.413Z,6.76
2022-09-28T07:42:08.581Z,6.67
2022-09-28T07:43:08.336Z,6.64
2022-09-28T07:44:08.287Z,6.66
2022-09-28T07:46:18.721Z,6.66
2022-09-28T07:47:18.607Z,6.48
2022-09-28T07:48:18.678Z,6.49
2022-09-28T07:49:18.692Z,6.46
2022-09-28T07:50:18.569Z,6.52
2022-09-28T07:51:18.511Z,6.41
2022-09-28T07:52:18.451Z,6.51
2022-09-28T07:53:18.413Z,6.43
2022-09-28T07:54:26.678Z,6.40
2022-09-28T07:55:18.687Z,6.41
2022-09-28T07:56:19.281Z,6.38
2022-09-28T07:57:21.554Z,6.48
2022-09-28T07:58:18.498Z,6.49
2022-09-28T07:59:18.817Z,6.51
2022-09-28T08:00:18.496Z,6.55
2022-09-28T08:01:18.482Z,6.51
2022-09-28T08:02:18.421Z,6.55
2022-09-28T08:03:18.292Z,6.48
2022-09-28T08:04:18.285Z,6.54
2022-09-28T08:05:26.060Z,6.61
2022-09-28T08:06:18.558Z,6.64
2022-09-28T08:07:21.661Z,6.59
2022-09-28T08:08:19.375Z,6.67
2022-09-28T08:09:18.420Z,6.73
2022-09-28T08:10:18.317Z,6.64
2022-09-28T08:11:18.258Z,6.66
2022-09-28T08:12:18.180Z,6.62
2022-09-28T08:13:18.201Z,6.67
2022-09-28T08:14:18.332Z,6.73
2022-09-28T08:15:18.166Z,6.76
2022-09-28T08:16:18.243Z,6.76
2022-09-28T08:17:18.129Z,6.80
2022-09-28T08:18:18.120Z,6.81
2022-09-28T08:19:18.301Z,6.84
2022-09-28T08:20:18.159Z,6.95
2022-09-28T08:21:18.112Z,6.94
2022-09-28T08:22:18.065Z,7.06
2022-09-28T08:23:18.098Z,6.94
2022-09-28T08:24:18.182Z,7.12
2022-09-28T08:25:18.090Z,7.10
2022-09-28T08:26:18.205Z,7.05
2022-09-28T08:27:18.011Z,7.09
2022-09-28T08:28:18.029Z,7.12
2022-09-28T08:29:18.062Z,7.17
2022-09-28T08:30:18.435Z,7.07
2022-09-28T08:31:18.074Z,7.10
2022-09-28T08:32:17.974Z,7.30
2022-09-28T08:33:17.951Z,7.35
2022-09-28T08:34:18.043Z,7.45
2022-09-28T08:35:17.973Z,7.27
2022-09-28T08:36:17.925Z,7.13
2022-09-28T08:37:18.059Z,7.15
2022-09-28T08:38:17.900Z,7.12
2022-09-28T08:39:17.882Z,7.17
2022-09-28T08:40:17.948Z,7.32
2022-09-28T08:41:17.874Z,7.27
2022-09-28T08:42:17.897Z,7.42
2022-09-28T08:43:17.845Z,7.43
2022-09-28T08:50:14.122Z,7.68
2022-09-28T08:51:13.688Z,7.71
2022-09-28T08:52:14.149Z,7.80
2022-09-28T08:53:13.698Z,7.85
2022-09-28T08:54:13.748Z,7.92
2022-09-28T08:55:13.859Z,7.87
2022-09-28T08:56:13.828Z,7.93
2022-09-28T08:57:13.912Z,7.97
2022-09-28T08:58:13.632Z,8.08
2022-09-28T08:59:13.718Z,8.15
2022-09-28T09:00:13.733Z,8.19
2022-09-28T09:01:13.703Z,8.16
2022-09-28T09:02:13.575Z,8.19
2022-09-28T09:03:13.643Z,8.23
2022-09-28T09:04:13.765Z,8.26
2022-09-28T09:05:13.632Z,8.34
2022-09-28T09:06:18.152Z,8.34
2022-09-28T09:07:14.547Z,8.41
2022-09-28T09:08:13.486Z,8.48
2022-09-28T09:09:13.486Z,8.44
2022-09-28T09:10:13.488Z,8.45
2022-09-28T09:11:13.595Z,8.59
2022-09-28T09:12:13.609Z,8.59
2022-09-28T09:13:13.501Z,8.62
2022-09-28T09:14:13.559Z,8.70
2022-09-28T09:15:13.481Z,8.73
2022-09-28T09:16:15.562Z,8.73
2022-09-28T09:17:13.462Z,8.71
2022-09-28T09:18:15.550Z,8.83
2022-09-28T09:19:13.526Z,8.89
2022-09-28T09:20:13.415Z,8.96
2022-09-28T09:21:13.352Z,8.87
2022-09-28T09:22:13.336Z,8.87
2022-09-28T09:23:13.369Z,8.80
2022-09-28T09:24:13.411Z,8.80
2022-09-28T09:25:13.309Z,8.81
2022-09-28T09:26:15.153Z,8.98
2022-09-28T09:27:13.265Z,9.01
2022-09-28T09:28:13.286Z,8.94
2022-09-28T09:29:13.235Z,8.95
2022-09-28T09:30:14.304Z,8.91
2022-09-28T09:31:13.317Z,8.95
2022-09-28T09:32:13.434Z,8.95
2022-09-28T09:33:13.181Z,8.81
2022-09-28T09:34:13.214Z,8.83
2022-09-28T09:35:13.199Z,8.84
2022-09-28T09:36:13.153Z,8.81
2022-09-28T09:37:13.224Z,8.83
2022-09-28T09:38:13.197Z,8.86
2022-09-28T09:39:13.167Z,8.83
2022-09-28T09:40:13.166Z,8.96
2022-09-28T09:42:13.106Z,9.02
2022-09-28T09:43:13.064Z,9.14
2022-09-28T09:44:13.170Z,9.21
2022-09-28T09:45:13.068Z,9.26
2022-09-28T09:46:13.157Z,9.14
2022-09-28T09:47:13.092Z,9.24
2022-09-28T09:48:13.045Z,9.23
2022-09-28T09:49:13.058Z,9.18
2022-09-28T09:50:13.029Z,9.21
2022-09-28T09:51:13.036Z,9.13
2022-09-28T09:52:12.948Z,9.17
2022-09-28T09:53:12.997Z,9.18
2022-09-28T09:54:13.024Z,9.14
2022-09-28T09:55:12.981Z,9.13
2022-09-28T09:56:12.918Z,9.13
2022-09-28T09:57:12.941Z,9.08
2022-09-28T09:58:12.961Z,9.05
2022-09-28T09:59:12.948Z,9.08
2022-09-28T10:00:12.961Z,9.02
2022-09-28T10:01:13.162Z,8.98
2022-09-28T10:02:13.077Z,9.01
2022-09-28T10:03:13.175Z,9.04
2022-09-28T10:04:12.912Z,8.91
2022-09-28T10:05:13.024Z,8.94
2022-09-28T10:06:12.926Z,8.86
2022-09-28T10:07:13.950Z,8.84
2022-09-28T10:08:12.978Z,8.86
2022-09-28T10:09:13.014Z,8.74
2022-09-28T10:10:12.949Z,8.79
2022-09-28T10:11:12.886Z,8.86
2022-09-28T10:12:13.135Z,8.83
2022-09-28T10:13:13.030Z,8.86
2022-09-28T10:14:13.147Z,8.84
2022-09-28T10:15:12.991Z,8.94
2022-09-28T10:16:13.740Z,8.87
2022-09-28T10:17:12.794Z,8.87
2022-09-28T10:18:12.775Z,8.80
2022-09-28T10:19:12.885Z,8.81
2022-09-28T10:20:12.884Z,8.83
2022-09-28T10:21:12.827Z,8.79
2022-09-28T10:22:13.627Z,8.77
2022-09-28T10:23:12.958Z,8.66
2022-09-28T10:24:12.883Z,8.62
2022-09-28T10:25:12.620Z,8.63
2022-09-28T10:26:12.581Z,8.53
2022-09-28T10:27:12.555Z,8.59
2022-09-28T10:28:12.546Z,8.55
2022-09-28T10:29:12.532Z,8.59
2022-09-28T10:30:12.532Z,8.59
2022-09-28T10:31:12.500Z,8.53
2022-09-28T10:32:12.510Z,8.45
2022-09-28T10:33:12.511Z,8.30
2022-09-28T10:34:12.492Z,8.25
2022-09-28T10:35:12.475Z,8.23
2022-09-28T10:36:12.455Z,8.28
2022-09-28T10:37:12.433Z,8.18
2022-09-28T10:38:12.424Z,8.05
2022-09-28T10:39:12.444Z,8.12
2022-09-28T10:40:12.418Z,8.10
2022-09-28T10:41:12.396Z,8.11
2022-09-28T10:42:12.398Z,8.10
2022-09-28T10:43:12.365Z,8.05
2022-09-28T10:44:12.371Z,7.97
2022-09-28T10:45:12.380Z,7.97
2022-09-28T10:46:12.404Z,8.07
2022-09-28T10:47:12.351Z,8.10
2022-09-28T10:48:12.308Z,8.26
2022-09-28T10:49:12.301Z,8.43
2022-09-28T10:50:12.287Z,8.47
2022-09-28T10:51:12.302Z,8.56
2022-09-28T10:52:12.263Z,8.77
2022-09-28T10:53:12.275Z,8.83
2022-09-28T10:54:12.249Z,8.80
2022-09-28T10:55:12.232Z,8.87
2022-09-28T10:56:12.217Z,8.95
2022-09-28T10:57:13.517Z,8.94
2022-09-28T10:58:12.210Z,8.94
2022-09-28T10:59:12.187Z,9.01
2022-09-28T11:00:12.181Z,8.99
2022-09-28T11:01:12.212Z,9.04
2022-09-28T11:02:12.254Z,9.17
2022-09-28T11:03:12.152Z,9.23
2022-09-28T11:04:12.127Z,9.21
2022-09-28T11:05:12.121Z,9.18
2022-09-28T11:06:12.106Z,9.13
2022-09-28T11:07:13.328Z,9.02
2022-09-28T11:08:12.080Z,9.18
2022-09-28T11:09:12.094Z,9.13
2022-09-28T11:10:12.059Z,9.20
2022-09-28T11:11:12.051Z,9.14
2022-09-28T11:12:12.064Z,9.08
2022-09-28T11:13:12.066Z,9.04
2022-09-28T11:14:12.038Z,8.99
2022-09-28T11:15:12.067Z,9.01
2022-09-28T11:16:12.092Z,8.92
2022-09-28T11:17:12.081Z,8.86
2022-09-28T11:18:12.028Z,8.89
2022-09-28T11:19:11.986Z,8.81
2022-09-28T11:20:11.952Z,8.79
2022-09-28T11:21:13.194Z,8.83
2022-09-28T11:22:13.990Z,8.89
2022-09-28T11:23:11.920Z,8.84
2022-09-28T11:24:16.677Z,8.63
2022-09-28T11:25:12.955Z,8.58
2022-09-28T11:26:14.853Z,8.47
2022-09-28T11:27:12.873Z,8.48
2022-09-28T11:28:11.886Z,8.40
2022-09-28T11:29:11.898Z,8.36
2022-09-28T11:30:11.858Z,8.38
2022-09-28T11:31:11.924Z,8.37
2022-09-28T11:32:15.684Z,8.30
2022-09-28T11:33:11.885Z,8.38
2022-09-28T11:34:11.844Z,8.30
2022-09-28T11:35:11.805Z,8.30
2022-09-28T11:36:11.859Z,8.26
2022-09-28T11:37:11.854Z,8.15
2022-09-28T11:38:11.867Z,8.15
2022-09-28T11:39:11.833Z,8.12
2022-09-28T11:40:11.875Z,8.11
2022-09-28T11:41:11.738Z,8.18
2022-09-28T11:42:16.104Z,8.15
2022-09-28T11:43:14.399Z,8.10
2022-09-28T11:44:11.754Z,8.15
2022-09-28T11:45:11.734Z,8.16
2022-09-28T11:46:11.749Z,8.12
2022-09-28T11:47:11.677Z,8.25
2022-09-28T11:48:11.651Z,8.22
2022-09-28T11:49:11.670Z,8.23
2022-09-28T11:50:11.666Z,8.28
2022-09-28T11:51:11.696Z,8.22
2022-09-28T11:52:11.600Z,8.33
2022-09-28T11:53:11.593Z,8.44
2022-09-28T11:54:11.671Z,8.58
2022-09-28T11:55:11.588Z,8.63
2022-09-28T11:56:11.561Z,8.65
2022-09-28T11:57:11.557Z,8.68
2022-09-28T11:58:11.552Z,8.66
2022-09-28T11:59:11.527Z,8.66
2022-09-28T12:00:11.561Z,8.73
2022-09-28T12:01:14.339Z,8.70
2022-09-28T12:02:12.630Z,8.77
2022-09-28T12:03:11.540Z,8.87
2022-09-28T12:04:11.651Z,9.02
2022-09-28T12:05:11.520Z,9.15
2022-09-28T12:06:11.433Z,9.17
2022-09-28T12:07:11.471Z,9.21
2022-09-28T12:08:11.425Z,9.18
2022-09-28T12:09:11.450Z,9.01
2022-09-28T12:10:11.506Z,9.01
2022-09-28T12:11:11.385Z,9.02
2022-09-28T12:12:11.367Z,9.20
2022-09-28T12:13:11.366Z,9.36
2022-09-28T12:14:11.341Z,9.36
2022-09-28T12:15:11.470Z,9.33
2022-09-28T12:16:44.224Z,9.46
2022-09-28T12:17:14.456Z,9.57
2022-09-28T12:18:12.432Z,9.60
2022-09-28T12:19:11.405Z,9.71
2022-09-28T12:20:11.425Z,9.79
2022-09-28T12:21:11.310Z,9.86
2022-09-28T12:22:11.370Z,9.86
2022-09-28T12:23:11.344Z,9.89
2022-09-28T12:24:11.279Z,9.79
2022-09-28T12:25:11.298Z,9.79
2022-09-28T12:26:11.440Z,9.66
2022-09-28T12:27:11.328Z,9.64
2022-09-28T12:28:11.278Z,9.48
2022-09-28T12:29:11.406Z,9.47
2022-09-28T12:30:11.258Z,9.38
2022-09-28T12:31:11.347Z,9.43
2022-09-28T12:32:11.251Z,9.38
2022-09-28T12:33:11.261Z,9.38
2022-09-28T12:34:11.286Z,9.43
2022-09-28T12:35:11.213Z,9.46
2022-09-28T12:36:11.188Z,9.48
2022-09-28T12:37:11.190Z,9.47
2022-09-28T12:38:11.179Z,9.60
2022-09-28T12:39:27.196Z,9.58
2022-09-28T12:40:12.072Z,9.57
2022-09-28T12:41:11.089Z,9.78
2022-09-28T12:42:11.110Z,9.81
2022-09-28T12:43:11.066Z,9.91
2022-09-28T12:44:11.038Z,9.86
2022-09-28T12:45:11.028Z,9.90
2022-09-28T12:46:12.665Z,9.94
2022-09-28T12:47:11.020Z,10.04
2022-09-28T12:48:10.968Z,10.14
2022-09-28T12:50:01.825Z,10.20
2022-09-28T12:51:11.932Z,10.27
2022-09-28T12:52:10.920Z,10.45
2022-09-28T12:53:10.931Z,10.41
2022-09-28T12:54:10.982Z,10.42
2022-09-28T12:56:10.919Z,10.53
2022-09-28T12:57:10.868Z,10.52
2022-09-28T12:58:10.848Z,10.56
2022-09-28T12:59:10.863Z,10.53
2022-09-28T13:00:10.851Z,10.41
2022-09-28T13:01:10.854Z,10.33
2022-09-28T13:02:10.854Z,10.40
2022-09-28T13:03:10.807Z,10.29
2022-09-28T13:04:13.333Z,10.34
2022-09-28T13:05:10.801Z,10.17
2022-09-28T13:06:10.800Z,10.17
2022-09-28T13:07:10.766Z,10.20
2022-09-28T13:08:10.748Z,10.25
2022-09-28T13:09:10.801Z,10.22
2022-09-28T13:10:10.718Z,10.12
2022-09-28T13:11:10.740Z,10.15
2022-09-28T13:12:11.743Z,9.99
2022-09-28T13:13:10.733Z,9.86
2022-09-28T13:14:10.773Z,9.83
2022-09-28T13:15:10.654Z,9.83
2022-09-28T13:16:10.688Z,9.76
2022-09-28T13:17:10.643Z,9.71
2022-09-28T13:18:10.628Z,9.64
2022-09-28T13:19:10.672Z,9.60
2022-09-28T13:20:10.604Z,9.39
2022-09-28T13:21:10.612Z,9.40
2022-09-28T13:22:10.597Z,9.51
2022-09-28T13:23:10.640Z,9.38
2022-09-28T13:24:31.128Z,9.36
2022-09-28T13:25:11.560Z,9.38
2022-09-28T13:26:10.543Z,9.35
2022-09-28T13:27:10.576Z,9.23